首页
METAR-TAF:

METAR-TAF

机场 :

Comox, 不列颠哥伦比亚, 加拿大

纬度: 49-43N, 经度: 124-54W, 海拔: 24米

当前天气观测

该预报发布于1小时和9分钟前的18:00 UTC
风速5节,风向
温度 15°C
湿度 72%
气压 1018 hPa
能見度: 32.2公里
少量云层高于1500英尺
多云层高于8000英尺

METAR: CYQQ 181800Z 09005KT 20SM FEW015 BKN080 15/10 A3007 RMK SC2AC5 DENSITY ALT 110FT SLP183

时间: 12:09 (19:09 UTC)

预报

该预报发布于1小时和29分钟前的17:40 UTC
预报有效从18日的 18点(UTC)到 19日的 24点(UTC)
风速3节,风向多变
能見度: 10公里
少量云层高于5000英尺
阴天层高于8000英尺
从 18日的 1900点(UTC)
风速6节,风向东转东南
能見度: 10公里
散云层高于8000英尺
从 18日的 2300点(UTC)
风速8节,风向东南
能見度: 10公里
少量云层高于8000英尺
成为
从 19日的 02点(UTC)到 19日的 04点(UTC)
风速3节,风向多变
从 19日的 0800点(UTC)
风速3节,风向多变
能見度: 10公里
少量云层高于1000英尺
从 19日的 1400点(UTC)
风速3节,风向多变
能見度: 10公里
天空无云
成为
从 19日的 15点(UTC)到 19日的 17点(UTC)
风速5节,风向
成为
从 19日的 20点(UTC)到 19日的 22点(UTC)
风速5节,风向

TAF: CYQQ 181740Z 1818/1924 VRB03KT P6SM FEW050 OVC080 FM181900 12006KT P6SM SCT080 FM182300 14008KT P6SM FEW080 BECMG 1902/1904 VRB03KT FM190800 VRB03KT P6SM FEW010 FM191400 VRB03KT P6SM SKC BECMG 1915/1917 36005KT BECMG 1920/1922 09005KT RMK NXT FCST BY 190000Z

超过4000个机场的气象观测和天气预报(METAR&TAF报告)。

可查询的气象台以黄色和红色小点在地图上表示。

将鼠标移到小点上方,可查看气象台名称。

然后点击查看天气观测和预报。

如需切换地图:点击带黑十字的绿色按钮放大地图;点击带横线的绿色按钮缩小地图;或者点击绿色箭头查看邻近地区的地图。


METAR-TAF: